sensor_id;sensor_type;location;lat;lon;timestamp;temperature;humidity
54264;DHT22;40178;53.042;6.406;2023-12-04T00:00:34;0.20;99.90
54264;DHT22;40178;53.042;6.406;2023-12-04T00:02:59;0.20;99.90
54264;DHT22;40178;53.042;6.406;2023-12-04T00:05:25;0.20;99.90
54264;DHT22;40178;53.042;6.406;2023-12-04T00:07:51;0.20;99.90
54264;DHT22;40178;53.042;6.406;2023-12-04T00:10:16;0.20;99.90
54264;DHT22;40178;53.042;6.406;2023-12-04T00:12:42;0.10;99.90
54264;DHT22;40178;53.042;6.406;2023-12-04T00:15:08;0.10;99.90
54264;DHT22;40178;53.042;6.406;2023-12-04T00:17:34;0.10;99.90
54264;DHT22;40178;53.042;6.406;2023-12-04T00:19:59;0.20;99.90
54264;DHT22;40178;53.042;6.406;2023-12-04T00:22:25;0.10;99.90
54264;DHT22;40178;53.042;6.406;2023-12-04T00:24:51;0.10;99.90
54264;DHT22;40178;53.042;6.406;2023-12-04T00:27:16;0.10;99.90
54264;DHT22;40178;53.042;6.406;2023-12-04T00:29:42;0.10;99.90
54264;DHT22;40178;53.042;6.406;2023-12-04T00:32:07;0.30;99.90
54264;DHT22;40178;53.042;6.406;2023-12-04T00:34:33;0.20;99.90
54264;DHT22;40178;53.042;6.406;2023-12-04T00:36:59;0.10;99.90
54264;DHT22;40178;53.042;6.406;2023-12-04T00:39:24;0.20;99.90
54264;DHT22;40178;53.042;6.406;2023-12-04T00:41:50;0.20;99.90
54264;DHT22;40178;53.042;6.406;2023-12-04T00:44:15;0.20;99.90
54264;DHT22;40178;53.042;6.406;2023-12-04T00:46:41;0.10;99.90
54264;DHT22;40178;53.042;6.406;2023-12-04T00:49:06;0.10;99.90
54264;DHT22;40178;53.042;6.406;2023-12-04T00:51:39;0.10;99.90
54264;DHT22;40178;53.042;6.406;2023-12-04T00:54:04;0.10;99.90
54264;DHT22;40178;53.042;6.406;2023-12-04T00:56:30;0.20;99.90
54264;DHT22;40178;53.042;6.406;2023-12-04T00:58:55;0.10;99.90
54264;DHT22;40178;53.042;6.406;2023-12-04T01:01:21;0.20;99.90
54264;DHT22;40178;53.042;6.406;2023-12-04T01:03:47;0.10;99.90
54264;DHT22;40178;53.042;6.406;2023-12-04T01:06:22;0.20;99.90
54264;DHT22;40178;53.042;6.406;2023-12-04T01:08:49;0.20;99.90
54264;DHT22;40178;53.042;6.406;2023-12-04T01:11:16;0.10;99.90
54264;DHT22;40178;53.042;6.406;2023-12-04T01:13:42;0.20;99.90
54264;DHT22;40178;53.042;6.406;2023-12-04T01:16:08;0.30;99.90
54264;DHT22;40178;53.042;6.406;2023-12-04T01:18:35;0.20;99.90
54264;DHT22;40178;53.042;6.406;2023-12-04T01:21:01;0.20;99.90
54264;DHT22;40178;53.042;6.406;2023-12-04T01:23:27;0.30;99.90
54264;DHT22;40178;53.042;6.406;2023-12-04T01:25:53;0.30;99.90
54264;DHT22;40178;53.042;6.406;2023-12-04T01:28:19;0.30;99.90
54264;DHT22;40178;53.042;6.406;2023-12-04T01:30:45;0.30;99.90
54264;DHT22;40178;53.042;6.406;2023-12-04T01:33:10;0.20;99.90
54264;DHT22;40178;53.042;6.406;2023-12-04T01:35:36;0.20;99.90
54264;DHT22;40178;53.042;6.406;2023-12-04T01:38:01;0.30;99.90
54264;DHT22;40178;53.042;6.406;2023-12-04T01:40:27;0.20;99.90
54264;DHT22;40178;53.042;6.406;2023-12-04T01:42:53;0.30;99.90
54264;DHT22;40178;53.042;6.406;2023-12-04T01:45:18;0.20;99.90
54264;DHT22;40178;53.042;6.406;2023-12-04T01:47:45;0.20;99.90
54264;DHT22;40178;53.042;6.406;2023-12-04T01:50:12;0.20;99.90
54264;DHT22;40178;53.042;6.406;2023-12-04T01:52:39;0.30;99.90
54264;DHT22;40178;53.042;6.406;2023-12-04T01:55:06;0.30;99.90
54264;DHT22;40178;53.042;6.406;2023-12-04T01:57:33;0.20;99.90
54264;DHT22;40178;53.042;6.406;2023-12-04T01:59:59;0.20;99.90
54264;DHT22;40178;53.042;6.406;2023-12-04T02:02:26;0.40;99.90
54264;DHT22;40178;53.042;6.406;2023-12-04T02:04:55;0.40;99.90
54264;DHT22;40178;53.042;6.406;2023-12-04T02:07:21;0.40;99.90
54264;DHT22;40178;53.042;6.406;2023-12-04T02:09:46;0.30;99.90
54264;DHT22;40178;53.042;6.406;2023-12-04T02:12:12;0.30;99.90
54264;DHT22;40178;53.042;6.406;2023-12-04T02:14:38;0.40;99.90
54264;DHT22;40178;53.042;6.406;2023-12-04T02:17:05;0.40;99.90
54264;DHT22;40178;53.042;6.406;2023-12-04T02:19:32;0.40;99.90
54264;DHT22;40178;53.042;6.406;2023-12-04T02:21:58;0.30;99.90
54264;DHT22;40178;53.042;6.406;2023-12-04T02:24:24;0.40;99.90
54264;DHT22;40178;53.042;6.406;2023-12-04T02:26:56;0.30;99.90
54264;DHT22;40178;53.042;6.406;2023-12-04T02:29:30;0.30;99.90
54264;DHT22;40178;53.042;6.406;2023-12-04T02:31:57;0.30;99.90
54264;DHT22;40178;53.042;6.406;2023-12-04T02:34:24;0.30;99.90
54264;DHT22;40178;53.042;6.406;2023-12-04T02:36:51;0.30;99.90
54264;DHT22;40178;53.042;6.406;2023-12-04T02:39:17;0.40;99.90
54264;DHT22;40178;53.042;6.406;2023-12-04T02:41:42;0.30;99.90
54264;DHT22;40178;53.042;6.406;2023-12-04T02:44:08;0.30;99.90
54264;DHT22;40178;53.042;6.406;2023-12-04T02:46:34;0.30;99.90
54264;DHT22;40178;53.042;6.406;2023-12-04T02:48:59;0.40;99.90
54264;DHT22;40178;53.042;6.406;2023-12-04T02:51:25;0.30;99.90
54264;DHT22;40178;53.042;6.406;2023-12-04T02:53:52;0.40;99.90
54264;DHT22;40178;53.042;6.406;2023-12-04T02:56:17;0.40;99.90
54264;DHT22;40178;53.042;6.406;2023-12-04T02:58:43;0.40;99.90
54264;DHT22;40178;53.042;6.406;2023-12-04T03:01:09;0.30;99.90
54264;DHT22;40178;53.042;6.406;2023-12-04T03:03:34;0.40;99.90
54264;DHT22;40178;53.042;6.406;2023-12-04T03:06:00;0.30;99.90
54264;DHT22;40178;53.042;6.406;2023-12-04T03:08:25;0.40;99.90
54264;DHT22;40178;53.042;6.406;2023-12-04T03:10:51;0.40;99.90
54264;DHT22;40178;53.042;6.406;2023-12-04T03:13:17;0.40;99.90
54264;DHT22;40178;53.042;6.406;2023-12-04T03:15:42;0.30;99.90
54264;DHT22;40178;53.042;6.406;2023-12-04T03:18:08;0.40;99.90
54264;DHT22;40178;53.042;6.406;2023-12-04T03:20:33;0.30;99.90
54264;DHT22;40178;53.042;6.406;2023-12-04T03:22:59;0.40;99.90
54264;DHT22;40178;53.042;6.406;2023-12-04T03:25:25;0.30;99.90
54264;DHT22;40178;53.042;6.406;2023-12-04T03:27:50;0.30;99.90
54264;DHT22;40178;53.042;6.406;2023-12-04T03:30:16;0.30;99.90
54264;DHT22;40178;53.042;6.406;2023-12-04T03:32:41;0.40;99.90
54264;DHT22;40178;53.042;6.406;2023-12-04T03:35:07;0.30;99.90
54264;DHT22;40178;53.042;6.406;2023-12-04T03:37:33;0.40;99.90
54264;DHT22;40178;53.042;6.406;2023-12-04T03:39:59;0.00;99.90
54264;DHT22;40178;53.042;6.406;2023-12-04T03:42:25;0.40;99.90
54264;DHT22;40178;53.042;6.406;2023-12-04T03:44:50;0.40;99.90
54264;DHT22;40178;53.042;6.406;2023-12-04T03:47:16;0.40;99.90
54264;DHT22;40178;53.042;6.406;2023-12-04T03:49:41;0.40;99.90
54264;DHT22;40178;53.042;6.406;2023-12-04T03:52:07;0.40;99.90
54264;DHT22;40178;53.042;6.406;2023-12-04T03:54:32;0.50;99.90
54264;DHT22;40178;53.042;6.406;2023-12-04T03:56:58;0.40;99.90
54264;DHT22;40178;53.042;6.406;2023-12-04T03:59:24;0.40;99.90
54264;DHT22;40178;53.042;6.406;2023-12-04T04:01:49;0.50;99.90
54264;DHT22;40178;53.042;6.406;2023-12-04T04:04:15;0.50;99.90
54264;DHT22;40178;53.042;6.406;2023-12-04T04:06:40;0.50;99.90
54264;DHT22;40178;53.042;6.406;2023-12-04T04:09:06;0.40;99.90
54264;DHT22;40178;53.042;6.406;2023-12-04T04:11:32;0.40;99.90
54264;DHT22;40178;53.042;6.406;2023-12-04T04:13:57;0.50;99.90
54264;DHT22;40178;53.042;6.406;2023-12-04T04:16:23;0.50;99.90
54264;DHT22;40178;53.042;6.406;2023-12-04T04:18:48;0.50;99.90
54264;DHT22;40178;53.042;6.406;2023-12-04T04:21:14;0.50;99.90
54264;DHT22;40178;53.042;6.406;2023-12-04T04:23:41;0.50;99.90
54264;DHT22;40178;53.042;6.406;2023-12-04T04:26:06;0.50;99.90
54264;DHT22;40178;53.042;6.406;2023-12-04T04:28:32;0.50;99.90
54264;DHT22;40178;53.042;6.406;2023-12-04T04:30:58;0.50;99.90
54264;DHT22;40178;53.042;6.406;2023-12-04T04:33:23;0.50;99.90
54264;DHT22;40178;53.042;6.406;2023-12-04T04:35:49;0.50;99.90
54264;DHT22;40178;53.042;6.406;2023-12-04T04:38:15;0.50;99.90
54264;DHT22;40178;53.042;6.406;2023-12-04T04:40:40;0.40;99.90
54264;DHT22;40178;53.042;6.406;2023-12-04T04:43:10;0.40;99.90
54264;DHT22;40178;53.042;6.406;2023-12-04T04:45:35;0.50;99.90
54264;DHT22;40178;53.042;6.406;2023-12-04T04:48:01;0.50;99.90
54264;DHT22;40178;53.042;6.406;2023-12-04T04:50:27;0.50;99.90
54264;DHT22;40178;53.042;6.406;2023-12-04T04:52:52;0.50;99.90
54264;DHT22;40178;53.042;6.406;2023-12-04T04:55:18;0.50;99.90
54264;DHT22;40178;53.042;6.406;2023-12-04T04:57:43;0.50;99.90
54264;DHT22;40178;53.042;6.406;2023-12-04T05:00:09;0.50;99.90
54264;DHT22;40178;53.042;6.406;2023-12-04T05:02:35;0.50;99.90
54264;DHT22;40178;53.042;6.406;2023-12-04T05:05:03;0.40;99.90
54264;DHT22;40178;53.042;6.406;2023-12-04T05:07:29;0.50;99.90
54264;DHT22;40178;53.042;6.406;2023-12-04T05:09:55;0.50;99.90
54264;DHT22;40178;53.042;6.406;2023-12-04T05:12:20;0.50;99.90
54264;DHT22;40178;53.042;6.406;2023-12-04T05:14:46;0.40;99.90
54264;DHT22;40178;53.042;6.406;2023-12-04T05:17:11;0.50;99.90
54264;DHT22;40178;53.042;6.406;2023-12-04T05:19:37;0.40;99.90
54264;DHT22;40178;53.042;6.406;2023-12-04T05:22:03;0.50;99.90
54264;DHT22;40178;53.042;6.406;2023-12-04T05:24:28;0.50;99.90
54264;DHT22;40178;53.042;6.406;2023-12-04T05:26:54;0.40;99.90
54264;DHT22;40178;53.042;6.406;2023-12-04T05:29:19;0.50;99.90
54264;DHT22;40178;53.042;6.406;2023-12-04T05:31:46;0.40;99.90
54264;DHT22;40178;53.042;6.406;2023-12-04T05:34:12;0.40;99.90
54264;DHT22;40178;53.042;6.406;2023-12-04T05:36:38;0.40;99.90
54264;DHT22;40178;53.042;6.406;2023-12-04T05:39:03;0.40;99.90
54264;DHT22;40178;53.042;6.406;2023-12-04T05:41:30;0.40;99.90
54264;DHT22;40178;53.042;6.406;2023-12-04T05:43:55;0.40;99.90
54264;DHT22;40178;53.042;6.406;2023-12-04T05:46:21;0.50;99.90
54264;DHT22;40178;53.042;6.406;2023-12-04T05:48:47;0.40;99.90
54264;DHT22;40178;53.042;6.406;2023-12-04T05:51:13;0.50;99.90
54264;DHT22;40178;53.042;6.406;2023-12-04T05:53:40;0.50;99.90
54264;DHT22;40178;53.042;6.406;2023-12-04T05:56:06;0.50;99.90
54264;DHT22;40178;53.042;6.406;2023-12-04T05:58:32;0.40;99.90
54264;DHT22;40178;53.042;6.406;2023-12-04T06:00:57;0.40;99.90
54264;DHT22;40178;53.042;6.406;2023-12-04T06:03:23;0.50;99.90
54264;DHT22;40178;53.042;6.406;2023-12-04T06:05:49;0.50;99.90
54264;DHT22;40178;53.042;6.406;2023-12-04T06:08:14;0.50;99.90
54264;DHT22;40178;53.042;6.406;2023-12-04T06:10:40;0.50;99.90
54264;DHT22;40178;53.042;6.406;2023-12-04T06:13:06;0.50;99.90
54264;DHT22;40178;53.042;6.406;2023-12-04T06:15:31;0.50;99.90
54264;DHT22;40178;53.042;6.406;2023-12-04T06:17:57;0.40;99.90
54264;DHT22;40178;53.042;6.406;2023-12-04T06:20:23;0.40;99.90
54264;DHT22;40178;53.042;6.406;2023-12-04T06:22:49;0.40;99.90
54264;DHT22;40178;53.042;6.406;2023-12-04T06:25:15;0.40;99.90
54264;DHT22;40178;53.042;6.406;2023-12-04T06:27:41;0.40;99.90
54264;DHT22;40178;53.042;6.406;2023-12-04T06:30:07;0.40;99.90
54264;DHT22;40178;53.042;6.406;2023-12-04T06:32:33;0.40;99.90
54264;DHT22;40178;53.042;6.406;2023-12-04T06:34:59;0.40;99.90
54264;DHT22;40178;53.042;6.406;2023-12-04T06:37:25;0.40;99.90
54264;DHT22;40178;53.042;6.406;2023-12-04T06:39:53;0.40;99.90
54264;DHT22;40178;53.042;6.406;2023-12-04T06:42:19;0.40;99.90
54264;DHT22;40178;53.042;6.406;2023-12-04T06:44:45;0.40;99.90
54264;DHT22;40178;53.042;6.406;2023-12-04T06:47:12;0.30;99.90
54264;DHT22;40178;53.042;6.406;2023-12-04T06:49:40;0.30;99.90
54264;DHT22;40178;53.042;6.406;2023-12-04T06:52:06;0.30;99.90
54264;DHT22;40178;53.042;6.406;2023-12-04T06:54:32;0.30;99.90
54264;DHT22;40178;53.042;6.406;2023-12-04T06:56:57;0.30;99.90
54264;DHT22;40178;53.042;6.406;2023-12-04T06:59:23;0.20;99.90
54264;DHT22;40178;53.042;6.406;2023-12-04T07:01:49;0.30;99.90
54264;DHT22;40178;53.042;6.406;2023-12-04T07:04:16;0.30;99.90
54264;DHT22;40178;53.042;6.406;2023-12-04T07:06:46;0.30;99.90
54264;DHT22;40178;53.042;6.406;2023-12-04T07:09:12;0.30;99.90
54264;DHT22;40178;53.042;6.406;2023-12-04T07:11:38;0.20;99.90
54264;DHT22;40178;53.042;6.406;2023-12-04T07:14:03;0.30;99.90
54264;DHT22;40178;53.042;6.406;2023-12-04T07:16:29;0.30;99.90
54264;DHT22;40178;53.042;6.406;2023-12-04T07:18:54;0.30;99.90
54264;DHT22;40178;53.042;6.406;2023-12-04T07:21:21;0.20;99.90
54264;DHT22;40178;53.042;6.406;2023-12-04T07:23:46;0.30;99.90
54264;DHT22;40178;53.042;6.406;2023-12-04T07:26:12;0.30;99.90
54264;DHT22;40178;53.042;6.406;2023-12-04T07:28:38;0.30;99.90
54264;DHT22;40178;53.042;6.406;2023-12-04T07:31:04;0.30;99.90
54264;DHT22;40178;53.042;6.406;2023-12-04T07:33:29;0.30;99.90
54264;DHT22;40178;53.042;6.406;2023-12-04T07:35:55;0.30;99.90
54264;DHT22;40178;53.042;6.406;2023-12-04T07:38:21;0.30;99.90
54264;DHT22;40178;53.042;6.406;2023-12-04T07:40:46;0.30;99.90
54264;DHT22;40178;53.042;6.406;2023-12-04T07:43:12;0.30;99.90
54264;DHT22;40178;53.042;6.406;2023-12-04T07:45:40;0.30;99.90
54264;DHT22;40178;53.042;6.406;2023-12-04T07:48:06;0.30;99.90
54264;DHT22;40178;53.042;6.406;2023-12-04T07:50:32;0.30;99.90
54264;DHT22;40178;53.042;6.406;2023-12-04T07:52:57;0.30;99.90
54264;DHT22;40178;53.042;6.406;2023-12-04T07:55:23;0.40;99.90
54264;DHT22;40178;53.042;6.406;2023-12-04T07:57:49;0.40;99.90
54264;DHT22;40178;53.042;6.406;2023-12-04T08:00:16;0.40;99.90
54264;DHT22;40178;53.042;6.406;2023-12-04T08:02:43;0.40;99.90
54264;DHT22;40178;53.042;6.406;2023-12-04T08:05:11;0.40;99.90
54264;DHT22;40178;53.042;6.406;2023-12-04T08:07:37;0.50;99.90
54264;DHT22;40178;53.042;6.406;2023-12-04T08:10:04;0.40;99.90
54264;DHT22;40178;53.042;6.406;2023-12-04T08:12:29;0.50;99.90
54264;DHT22;40178;53.042;6.406;2023-12-04T08:14:55;0.40;99.90
54264;DHT22;40178;53.042;6.406;2023-12-04T08:17:21;0.50;99.90
54264;DHT22;40178;53.042;6.406;2023-12-04T08:19:46;0.50;99.90
54264;DHT22;40178;53.042;6.406;2023-12-04T08:22:12;0.50;99.90
54264;DHT22;40178;53.042;6.406;2023-12-04T08:24:37;0.50;99.90
54264;DHT22;40178;53.042;6.406;2023-12-04T08:27:03;0.50;99.90
54264;DHT22;40178;53.042;6.406;2023-12-04T08:29:29;0.50;99.90
54264;DHT22;40178;53.042;6.406;2023-12-04T08:31:54;0.60;99.90
54264;DHT22;40178;53.042;6.406;2023-12-04T08:34:20;0.50;99.90
54264;DHT22;40178;53.042;6.406;2023-12-04T08:36:46;0.50;99.90
54264;DHT22;40178;53.042;6.406;2023-12-04T08:39:11;0.60;99.90
54264;DHT22;40178;53.042;6.406;2023-12-04T08:41:37;0.60;99.90
54264;DHT22;40178;53.042;6.406;2023-12-04T08:44:02;0.60;99.90
54264;DHT22;40178;53.042;6.406;2023-12-04T08:46:28;0.60;99.90
54264;DHT22;40178;53.042;6.406;2023-12-04T08:48:54;0.60;99.90
54264;DHT22;40178;53.042;6.406;2023-12-04T08:51:19;0.60;99.90
54264;DHT22;40178;53.042;6.406;2023-12-04T08:53:45;0.60;99.90
54264;DHT22;40178;53.042;6.406;2023-12-04T08:56:11;0.60;99.90
54264;DHT22;40178;53.042;6.406;2023-12-04T08:58:37;0.60;99.90
54264;DHT22;40178;53.042;6.406;2023-12-04T09:01:03;0.70;99.90
54264;DHT22;40178;53.042;6.406;2023-12-04T09:03:29;0.70;99.90
54264;DHT22;40178;53.042;6.406;2023-12-04T09:05:57;0.70;99.90
54264;DHT22;40178;53.042;6.406;2023-12-04T09:08:23;0.70;99.90
54264;DHT22;40178;53.042;6.406;2023-12-04T09:10:48;0.70;99.90
54264;DHT22;40178;53.042;6.406;2023-12-04T09:13:15;0.80;99.90
54264;DHT22;40178;53.042;6.406;2023-12-04T09:15:40;0.70;99.90
54264;DHT22;40178;53.042;6.406;2023-12-04T09:18:06;0.80;99.90
54264;DHT22;40178;53.042;6.406;2023-12-04T09:20:32;0.80;99.90
54264;DHT22;40178;53.042;6.406;2023-12-04T09:22:57;0.80;99.90
54264;DHT22;40178;53.042;6.406;2023-12-04T09:25:23;0.80;99.90
54264;DHT22;40178;53.042;6.406;2023-12-04T09:27:49;0.90;99.90
54264;DHT22;40178;53.042;6.406;2023-12-04T09:30:14;0.90;99.90
54264;DHT22;40178;53.042;6.406;2023-12-04T09:32:40;0.90;99.90
54264;DHT22;40178;53.042;6.406;2023-12-04T09:35:06;0.90;99.90
54264;DHT22;40178;53.042;6.406;2023-12-04T09:37:32;0.90;99.90
54264;DHT22;40178;53.042;6.406;2023-12-04T09:39:57;0.90;99.90
54264;DHT22;40178;53.042;6.406;2023-12-04T09:42:23;1.00;99.90
54264;DHT22;40178;53.042;6.406;2023-12-04T09:44:51;1.00;99.90
54264;DHT22;40178;53.042;6.406;2023-12-04T09:47:18;1.00;99.90
54264;DHT22;40178;53.042;6.406;2023-12-04T09:49:47;1.10;99.90
54264;DHT22;40178;53.042;6.406;2023-12-04T09:52:14;1.10;99.90
54264;DHT22;40178;53.042;6.406;2023-12-04T09:54:40;1.20;99.90
54264;DHT22;40178;53.042;6.406;2023-12-04T09:57:06;1.20;99.90
54264;DHT22;40178;53.042;6.406;2023-12-04T09:59:32;1.20;99.90
54264;DHT22;40178;53.042;6.406;2023-12-04T10:01:58;1.20;99.90
54264;DHT22;40178;53.042;6.406;2023-12-04T10:04:25;1.30;99.90
54264;DHT22;40178;53.042;6.406;2023-12-04T10:06:51;1.30;99.90
54264;DHT22;40178;53.042;6.406;2023-12-04T10:09:20;1.30;99.90
54264;DHT22;40178;53.042;6.406;2023-12-04T10:11:50;1.30;99.90
54264;DHT22;40178;53.042;6.406;2023-12-04T10:14:18;1.30;99.90
54264;DHT22;40178;53.042;6.406;2023-12-04T10:16:44;1.30;99.90
54264;DHT22;40178;53.042;6.406;2023-12-04T10:19:23;1.40;99.90
54264;DHT22;40178;53.042;6.406;2023-12-04T10:21:51;1.40;99.90
54264;DHT22;40178;53.042;6.406;2023-12-04T10:24:37;1.30;99.90
54264;DHT22;40178;53.042;6.406;2023-12-04T10:27:04;1.30;99.90
54264;DHT22;40178;53.042;6.406;2023-12-04T10:29:48;1.30;99.90
54264;DHT22;40178;53.042;6.406;2023-12-04T10:32:18;1.30;99.90
54264;DHT22;40178;53.042;6.406;2023-12-04T10:34:47;1.40;99.90
54264;DHT22;40178;53.042;6.406;2023-12-04T10:37:12;1.30;99.90
54264;DHT22;40178;53.042;6.406;2023-12-04T10:39:46;1.40;99.90
54264;DHT22;40178;53.042;6.406;2023-12-04T10:42:12;1.40;99.90
54264;DHT22;40178;53.042;6.406;2023-12-04T10:44:48;1.40;99.90
54264;DHT22;40178;53.042;6.406;2023-12-04T10:47:13;1.50;99.90
54264;DHT22;40178;53.042;6.406;2023-12-04T10:49:41;1.40;99.90
54264;DHT22;40178;53.042;6.406;2023-12-04T10:52:08;1.50;99.90
54264;DHT22;40178;53.042;6.406;2023-12-04T10:54:34;1.50;99.90
54264;DHT22;40178;53.042;6.406;2023-12-04T10:57:01;1.50;99.90
54264;DHT22;40178;53.042;6.406;2023-12-04T10:59:32;1.60;99.90
54264;DHT22;40178;53.042;6.406;2023-12-04T11:02:01;1.60;99.90
54264;DHT22;40178;53.042;6.406;2023-12-04T11:04:31;2.50;99.90
54264;DHT22;40178;53.042;6.406;2023-12-04T11:06:59;1.70;99.90
54264;DHT22;40178;53.042;6.406;2023-12-04T11:09:28;1.70;99.90
54264;DHT22;40178;53.042;6.406;2023-12-04T11:11:59;1.70;99.90
54264;DHT22;40178;53.042;6.406;2023-12-04T11:14:33;1.80;99.90
54264;DHT22;40178;53.042;6.406;2023-12-04T11:17:04;1.80;99.90
54264;DHT22;40178;53.042;6.406;2023-12-04T11:22:15;1.90;99.90
54264;DHT22;40178;53.042;6.406;2023-12-04T11:24:46;1.90;99.90
54264;DHT22;40178;53.042;6.406;2023-12-04T11:27:14;1.90;99.90
54264;DHT22;40178;53.042;6.406;2023-12-04T11:29:40;1.90;99.90
54264;DHT22;40178;53.042;6.406;2023-12-04T11:32:06;1.90;98.50
54264;DHT22;40178;53.042;6.406;2023-12-04T11:34:32;1.90;99.90
54264;DHT22;40178;53.042;6.406;2023-12-04T11:37:00;1.90;96.20
54264;DHT22;40178;53.042;6.406;2023-12-04T11:39:28;1.90;99.60
54264;DHT22;40178;53.042;6.406;2023-12-04T11:41:54;1.90;99.90
54264;DHT22;40178;53.042;6.406;2023-12-04T11:44:19;1.80;99.90
54264;DHT22;40178;53.042;6.406;2023-12-04T11:46:56;1.90;99.90
54264;DHT22;40178;53.042;6.406;2023-12-04T11:51:51;1.90;98.70
54264;DHT22;40178;53.042;6.406;2023-12-04T11:54:19;1.90;99.90
54264;DHT22;40178;53.042;6.406;2023-12-04T11:59:38;1.90;99.80
54264;DHT22;40178;53.042;6.406;2023-12-04T12:02:08;1.90;98.50
54264;DHT22;40178;53.042;6.406;2023-12-04T12:04:34;1.90;99.90
54264;DHT22;40178;53.042;6.406;2023-12-04T12:07:00;1.90;98.40
54264;DHT22;40178;53.042;6.406;2023-12-04T12:09:28;2.10;97.30
54264;DHT22;40178;53.042;6.406;2023-12-04T12:11:54;1.90;94.90
54264;DHT22;40178;53.042;6.406;2023-12-04T12:14:21;1.90;99.00
54264;DHT22;40178;53.042;6.406;2023-12-04T12:16:47;1.90;96.60
54264;DHT22;40178;53.042;6.406;2023-12-04T12:19:13;1.90;97.30
54264;DHT22;40178;53.042;6.406;2023-12-04T12:21:40;1.90;99.90
54264;DHT22;40178;53.042;6.406;2023-12-04T12:24:06;1.90;98.40
54264;DHT22;40178;53.042;6.406;2023-12-04T12:26:32;1.90;95.70
54264;DHT22;40178;53.042;6.406;2023-12-04T12:28:58;1.90;93.10
54264;DHT22;40178;53.042;6.406;2023-12-04T12:31:24;1.90;96.70
54264;DHT22;40178;53.042;6.406;2023-12-04T12:33:49;1.90;99.70
54264;DHT22;40178;53.042;6.406;2023-12-04T12:36:16;2.00;98.80
54264;DHT22;40178;53.042;6.406;2023-12-04T12:38:44;1.90;88.80
54264;DHT22;40178;53.042;6.406;2023-12-04T12:41:16;2.00;99.30
54264;DHT22;40178;53.042;6.406;2023-12-04T12:43:42;2.00;96.10
54264;DHT22;40178;53.042;6.406;2023-12-04T12:46:07;2.00;81.70
54264;DHT22;40178;53.042;6.406;2023-12-04T12:48:33;2.00;99.10
54264;DHT22;40178;53.042;6.406;2023-12-04T12:50:59;2.00;91.30
54264;DHT22;40178;53.042;6.406;2023-12-04T12:53:25;2.10;91.50
54264;DHT22;40178;53.042;6.406;2023-12-04T12:55:50;2.10;94.90
54264;DHT22;40178;53.042;6.406;2023-12-04T12:58:17;2.10;87.60
54264;DHT22;40178;53.042;6.406;2023-12-04T13:00:46;2.10;96.10
54264;DHT22;40178;53.042;6.406;2023-12-04T13:03:16;2.10;95.00
54264;DHT22;40178;53.042;6.406;2023-12-04T13:05:42;2.20;90.30
54264;DHT22;40178;53.042;6.406;2023-12-04T13:08:08;2.10;81.60
54264;DHT22;40178;53.042;6.406;2023-12-04T13:10:33;2.10;72.70
54264;DHT22;40178;53.042;6.406;2023-12-04T13:12:59;2.20;80.40
54264;DHT22;40178;53.042;6.406;2023-12-04T13:15:26;2.20;80.00
54264;DHT22;40178;53.042;6.406;2023-12-04T13:17:51;2.20;71.10
54264;DHT22;40178;53.042;6.406;2023-12-04T13:20:17;2.20;52.50
54264;DHT22;40178;53.042;6.406;2023-12-04T13:22:43;2.30;61.30
54264;DHT22;40178;53.042;6.406;2023-12-04T13:25:09;2.20;92.10
54264;DHT22;40178;53.042;6.406;2023-12-04T13:27:36;2.20;75.00
54264;DHT22;40178;53.042;6.406;2023-12-04T13:30:05;2.20;84.60
54264;DHT22;40178;53.042;6.406;2023-12-04T13:32:31;2.20;96.10
54264;DHT22;40178;53.042;6.406;2023-12-04T13:34:59;2.20;74.60
54264;DHT22;40178;53.042;6.406;2023-12-04T13:37:24;2.30;76.10
54264;DHT22;40178;53.042;6.406;2023-12-04T13:39:52;2.30;92.20
54264;DHT22;40178;53.042;6.406;2023-12-04T13:42:24;2.30;86.60
54264;DHT22;40178;53.042;6.406;2023-12-04T13:45:08;2.30;93.70
54264;DHT22;40178;53.042;6.406;2023-12-04T13:47:35;2.30;90.40
54264;DHT22;40178;53.042;6.406;2023-12-04T13:50:01;2.30;79.10
54264;DHT22;40178;53.042;6.406;2023-12-04T13:52:27;2.20;89.40
54264;DHT22;40178;53.042;6.406;2023-12-04T13:54:58;2.20;85.70
54264;DHT22;40178;53.042;6.406;2023-12-04T13:57:23;2.20;88.30
54264;DHT22;40178;53.042;6.406;2023-12-04T13:59:59;2.10;93.80
54264;DHT22;40178;53.042;6.406;2023-12-04T14:02:25;2.00;94.90
54264;DHT22;40178;53.042;6.406;2023-12-04T14:04:51;2.00;88.60
54264;DHT22;40178;53.042;6.406;2023-12-04T14:07:17;2.00;95.20
54264;DHT22;40178;53.042;6.406;2023-12-04T14:09:44;2.00;92.60
54264;DHT22;40178;53.042;6.406;2023-12-04T14:12:13;1.90;97.60
54264;DHT22;40178;53.042;6.406;2023-12-04T14:14:41;1.90;98.50
54264;DHT22;40178;53.042;6.406;2023-12-04T14:17:07;1.90;99.90
54264;DHT22;40178;53.042;6.406;2023-12-04T14:19:34;1.80;99.90
54264;DHT22;40178;53.042;6.406;2023-12-04T14:21:59;1.80;99.90
54264;DHT22;40178;53.042;6.406;2023-12-04T14:24:25;1.80;96.60
54264;DHT22;40178;53.042;6.406;2023-12-04T14:26:52;1.80;93.60
54264;DHT22;40178;53.042;6.406;2023-12-04T14:29:19;1.80;97.90
54264;DHT22;40178;53.042;6.406;2023-12-04T14:31:45;1.80;96.50
54264;DHT22;40178;53.042;6.406;2023-12-04T14:34:11;1.70;97.50
54264;DHT22;40178;53.042;6.406;2023-12-04T14:36:37;1.70;98.40
54264;DHT22;40178;53.042;6.406;2023-12-04T14:39:04;1.70;96.70
54264;DHT22;40178;53.042;6.406;2023-12-04T14:41:30;1.70;99.20
54264;DHT22;40178;53.042;6.406;2023-12-04T14:43:55;1.70;99.90
54264;DHT22;40178;53.042;6.406;2023-12-04T14:46:21;1.70;99.90
54264;DHT22;40178;53.042;6.406;2023-12-04T14:48:47;1.70;99.90
54264;DHT22;40178;53.042;6.406;2023-12-04T14:51:12;1.70;99.90
54264;DHT22;40178;53.042;6.406;2023-12-04T14:53:39;1.70;99.90
54264;DHT22;40178;53.042;6.406;2023-12-04T14:56:14;1.60;99.90
54264;DHT22;40178;53.042;6.406;2023-12-04T14:58:58;2.60;96.30
54264;DHT22;40178;53.042;6.406;2023-12-04T15:01:30;1.60;98.70
54264;DHT22;40178;53.042;6.406;2023-12-04T15:04:02;1.60;99.80
54264;DHT22;40178;53.042;6.406;2023-12-04T15:06:37;1.60;96.50
54264;DHT22;40178;53.042;6.406;2023-12-04T15:09:28;1.60;96.50
54264;DHT22;40178;53.042;6.406;2023-12-04T15:12:12;1.50;97.10
54264;DHT22;40178;53.042;6.406;2023-12-04T15:14:43;1.50;99.90
54264;DHT22;40178;53.042;6.406;2023-12-04T15:17:19;1.50;96.70
54264;DHT22;40178;53.042;6.406;2023-12-04T15:20:13;1.40;98.50
54264;DHT22;40178;53.042;6.406;2023-12-04T15:22:38;1.40;95.10
54264;DHT22;40178;53.042;6.406;2023-12-04T15:25:05;1.40;99.90
54264;DHT22;40178;53.042;6.406;2023-12-04T15:27:34;1.30;99.90
54264;DHT22;40178;53.042;6.406;2023-12-04T15:29:59;1.30;99.90
54264;DHT22;40178;53.042;6.406;2023-12-04T15:32:25;1.30;98.80
54264;DHT22;40178;53.042;6.406;2023-12-04T15:34:51;1.30;99.90
54264;DHT22;40178;53.042;6.406;2023-12-04T15:37:17;1.20;97.90
54264;DHT22;40178;53.042;6.406;2023-12-04T15:39:42;1.30;98.60
54264;DHT22;40178;53.042;6.406;2023-12-04T15:42:08;1.20;99.90
54264;DHT22;40178;53.042;6.406;2023-12-04T15:44:33;1.20;99.90
54264;DHT22;40178;53.042;6.406;2023-12-04T15:46:59;1.20;99.90
54264;DHT22;40178;53.042;6.406;2023-12-04T15:49:25;1.20;99.90